Time;durP1;ratioP1;P1;durP2;ratioP2;P2;SDS_P1;SDS_P2;PMS_P1;PMS_P2;Temp;Humidity;BMP_temperature;BMP_pressure;BME280_temperature;BME280_humidity;BME280_pressure;Samples;Min_cycle;Max_cycle;Signal;HPM_P1;HPM_P2
2023/05/27 00:00:06;;;;;;;11.18;7.03;;;;;;;21.25;53.44;99447.06;4307773;33;33461;-86
2023/05/27 00:02:34;;;;;;;8.45;6.45;;;;;;;21.00;53.77;99452.97;4301298;33;34295;-87
2023/05/27 00:05:02;;;;;;;11.52;7.35;;;;;;;20.94;54.01;99452.25;4303738;33;34236;-86
2023/05/27 00:07:30;;;;;;;9.60;6.97;;;;;;;20.83;54.20;99452.50;4301752;33;34553;-87
2023/05/27 00:09:58;;;;;;;11.50;7.62;;;;;;;20.83;54.18;99448.09;4315767;33;33841;-85
2023/05/27 00:12:26;;;;;;;10.02;6.85;;;;;;;20.90;54.20;99444.41;4315567;33;34035;-86
2023/05/27 00:14:54;;;;;;;12.05;7.28;;;;;;;20.89;54.35;99445.31;4315403;33;33947;-87
2023/05/27 00:17:21;;;;;;;12.02;7.93;;;;;;;20.67;55.23;99443.25;4315440;33;33623;-86
2023/05/27 00:19:51;;;;;;;11.02;7.85;;;;;;;20.72;55.10;99447.53;4315705;33;33851;-87
2023/05/27 00:22:19;;;;;;;12.02;7.78;;;;;;;20.76;54.95;99443.91;4315446;33;34376;-87
2023/05/27 00:24:47;;;;;;;10.35;7.50;;;;;;;20.63;55.43;99439.81;4314052;33;34989;-86
2023/05/27 00:27:15;;;;;;;12.23;8.45;;;;;;;20.86;54.82;99440.12;4315154;33;34141;-86
2023/05/27 00:29:42;;;;;;;13.80;8.07;;;;;;;20.67;55.29;99446.75;4315199;33;33877;-87
2023/05/27 00:32:10;;;;;;;9.45;7.47;;;;;;;20.61;55.63;99447.78;4302100;33;34655;-87
2023/05/27 00:34:37;;;;;;;10.40;7.37;;;;;;;20.62;55.57;99441.59;4314847;33;33971;-86
2023/05/27 00:37:06;;;;;;;10.95;7.72;;;;;;;20.36;56.19;99444.78;4301665;33;33636;-86
2023/05/27 00:39:33;;;;;;;12.52;8.30;;;;;;;20.43;55.95;99437.63;4315711;33;33506;-86
2023/05/27 00:42:01;;;;;;;11.57;8.32;;;;;;;20.42;56.27;99442.03;4314867;33;33689;-87
2023/05/27 00:44:29;;;;;;;10.80;8.23;;;;;;;20.72;55.25;99437.00;4315108;33;33496;-86
2023/05/27 00:46:56;;;;;;;11.93;7.90;;;;;;;20.60;55.59;99430.22;4315181;33;34082;-87
2023/05/27 00:49:27;;;;;;;13.70;9.20;;;;;;;20.46;55.86;99432.31;4315165;33;33823;-85
2023/05/27 00:51:55;;;;;;;11.40;8.98;;;;;;;20.52;56.11;99436.56;4302405;33;33942;-87
2023/05/27 00:54:22;;;;;;;12.32;8.57;;;;;;;20.45;56.13;99433.19;4314884;33;34555;-86
2023/05/27 00:56:50;;;;;;;11.15;9.05;;;;;;;20.59;55.59;99446.06;4314819;33;33608;-88
2023/05/27 00:59:18;;;;;;;11.27;8.85;;;;;;;20.20;56.58;99435.50;4315182;33;33927;-87
2023/05/27 01:01:45;;;;;;;13.07;9.25;;;;;;;20.47;56.01;99430.53;4314745;33;34825;-86
2023/05/27 01:04:13;;;;;;;12.35;7.87;;;;;;;20.50;56.02;99443.66;4315029;33;34820;-87
2023/05/27 01:07:02;;;;;;;10.85;8.50;;;;;;;20.30;56.35;99436.16;4314794;33;34354;-87
2023/05/27 01:09:40;;;;;;;11.88;8.38;;;;;;;20.35;56.28;99437.81;4314918;33;34660;-86
2023/05/27 01:12:16;;;;;;;12.48;8.68;;;;;;;20.33;56.45;99444.00;4314419;33;33876;-87
2023/05/27 01:14:45;;;;;;;11.48;8.82;;;;;;;20.24;56.80;99447.72;4301547;33;33855;-86
2023/05/27 01:17:15;;;;;;;11.35;8.60;;;;;;;20.29;56.68;99440.56;4314611;33;33609;-85
2023/05/27 01:19:44;;;;;;;12.55;8.55;;;;;;;20.28;56.78;99436.22;4301596;33;33789;-87
2023/05/27 01:22:14;;;;;;;12.15;9.27;;;;;;;20.35;56.65;99426.41;4314382;33;32441;-87
2023/05/27 01:24:42;;;;;;;12.57;8.48;;;;;;;20.10;57.33;99429.56;4315038;33;34100;-87
2023/05/27 01:27:15;;;;;;;13.75;9.50;;;;;;;20.11;57.41;99431.31;4314749;33;34887;-86
2023/05/27 01:29:43;;;;;;;14.38;9.00;;;;;;;20.16;57.09;99423.31;4314028;33;34327;-87
2023/05/27 01:32:13;;;;;;;13.70;9.57;;;;;;;20.09;57.35;99427.00;4301174;33;35090;-87
2023/05/27 01:34:51;;;;;;;15.32;8.88;;;;;;;20.12;57.37;99426.94;4315058;33;33911;-86
2023/05/27 01:37:19;;;;;;;15.55;9.55;;;;;;;20.08;57.35;99428.75;4316681;33;34537;-86
2023/05/27 01:39:49;;;;;;;13.05;8.45;;;;;;;20.13;57.07;99426.88;4303739;33;33542;-86
2023/05/27 01:42:17;;;;;;;11.45;8.77;;;;;;;19.88;57.44;99426.53;4289262;33;33738;-87
2023/05/27 01:44:46;;;;;;;11.40;9.02;;;;;;;19.98;57.41;99421.09;4286640;33;34070;-86
2023/05/27 01:47:13;;;;;;;13.50;9.30;;;;;;;19.91;57.52;99428.25;4303394;33;33181;-86
2023/05/27 01:49:41;;;;;;;17.15;9.15;;;;;;;19.92;57.15;99417.66;4316787;33;33766;-87
2023/05/27 01:52:09;;;;;;;13.80;9.30;;;;;;;19.98;57.05;99423.72;4316465;33;34172;-87
2023/05/27 01:54:36;;;;;;;12.32;9.25;;;;;;;19.79;57.43;99416.22;4316276;33;33746;-87
2023/05/27 01:57:06;;;;;;;13.93;9.50;;;;;;;19.88;57.41;99413.38;4316633;33;34411;-87
2023/05/27 01:59:34;;;;;;;13.35;9.85;;;;;;;19.85;57.50;99416.09;4316769;33;33909;-85
2023/05/27 02:02:01;;;;;;;12.85;9.85;;;;;;;19.75;57.46;99417.16;4316805;33;33831;-86
2023/05/27 02:04:29;;;;;;;13.35;9.48;;;;;;;19.81;57.11;99417.06;4316536;33;34153;-85
2023/05/27 02:06:57;;;;;;;13.25;9.38;;;;;;;19.95;56.43;99416.75;4316476;33;33005;-86
2023/05/27 02:09:25;;;;;;;13.18;9.52;;;;;;;19.87;56.63;99419.53;4316456;33;33491;-86
2023/05/27 02:11:53;;;;;;;12.90;10.25;;;;;;;19.73;56.96;99413.69;4316568;33;33559;-85
2023/05/27 02:14:20;;;;;;;14.27;9.15;;;;;;;19.60;57.38;99406.94;4316678;33;34057;-86
2023/05/27 02:16:51;;;;;;;13.02;9.63;;;;;;;19.72;57.17;99411.09;4316382;33;33777;-85
2023/05/27 02:19:20;;;;;;;19.80;10.38;;;;;;;19.49;57.87;99412.41;4316127;33;33480;-85
2023/05/27 02:21:47;;;;;;;13.30;9.57;;;;;;;19.40;57.88;99416.09;4316515;33;33750;-86
2023/05/27 02:24:15;;;;;;;12.07;9.43;;;;;;;19.49;57.32;99412.41;4312544;33;34107;-85
2023/05/27 02:26:42;;;;;;;15.60;10.68;;;;;;;19.51;57.35;99409.72;4314557;33;33589;-86
2023/05/27 02:29:10;;;;;;;15.70;9.73;;;;;;;19.51;57.82;99410.62;4315604;33;33969;-86
2023/05/27 02:31:38;;;;;;;13.68;10.25;;;;;;;19.71;57.42;99412.88;4314550;33;34685;-85
2023/05/27 02:34:05;;;;;;;13.40;9.68;;;;;;;19.66;57.36;99410.34;4316376;33;34076;-87
2023/05/27 02:36:33;;;;;;;11.88;8.80;;;;;;;19.55;57.47;99421.94;4316412;33;34448;-87
2023/05/27 02:39:01;;;;;;;14.38;10.30;;;;;;;19.74;57.20;99410.19;4305656;33;34634;-86
2023/05/27 02:41:29;;;;;;;13.98;10.20;;;;;;;19.12;58.18;99425.34;4308940;33;34180;-86
2023/05/27 02:43:56;;;;;;;14.35;9.95;;;;;;;19.21;58.02;99419.94;4315991;33;34057;-86
2023/05/27 02:46:24;;;;;;;11.68;9.68;;;;;;;19.46;57.65;99417.72;4315498;33;33686;-86
2023/05/27 02:48:51;;;;;;;14.40;11.12;;;;;;;19.50;57.58;99421.16;4316731;33;33927;-87
2023/05/27 02:51:20;;;;;;;12.90;9.75;;;;;;;19.66;57.06;99415.59;4316119;33;34860;-87
2023/05/27 02:53:50;;;;;;;16.23;10.85;;;;;;;19.64;57.27;99417.38;4314976;33;33843;-86
2023/05/27 02:56:17;;;;;;;15.70;10.05;;;;;;;19.53;57.54;99423.72;4314495;33;33610;-87
2023/05/27 02:58:45;;;;;;;13.32;10.43;;;;;;;19.62;57.55;99413.94;4316483;33;34673;-86
2023/05/27 03:01:13;;;;;;;12.25;9.70;;;;;;;19.27;58.38;99416.31;4315828;33;33843;-87
2023/05/27 03:03:40;;;;;;;12.77;9.40;;;;;;;19.60;57.60;99407.78;4315355;33;34789;-85
2023/05/27 03:06:08;;;;;;;11.57;8.48;;;;;;;19.68;57.07;99418.19;4316346;33;34549;-87
2023/05/27 03:08:36;;;;;;;12.45;9.48;;;;;;;19.70;57.18;99421.66;4316268;33;33373;-86
2023/05/27 03:11:03;;;;;;;14.80;9.98;;;;;;;19.74;56.72;99418.06;4315540;33;34862;-87
2023/05/27 03:13:31;;;;;;;12.23;9.35;;;;;;;19.60;57.25;99422.72;4315342;33;33731;-87
2023/05/27 03:15:58;;;;;;;14.50;9.98;;;;;;;19.51;57.32;99421.13;4316263;33;33308;-87
2023/05/27 03:18:26;;;;;;;13.27;9.45;;;;;;;19.10;58.70;99425.41;4315706;33;34581;-85
2023/05/27 03:20:53;;;;;;;12.50;9.15;;;;;;;19.45;58.07;99426.50;4315820;33;33587;-87
2023/05/27 03:23:21;;;;;;;14.50;10.15;;;;;;;19.36;58.56;99431.94;4301051;33;34660;-87
2023/05/27 03:25:50;;;;;;;12.27;10.10;;;;;;;19.14;58.34;99426.22;4303204;33;33154;-88
2023/05/27 03:28:18;;;;;;;14.50;9.75;;;;;;;19.19;58.48;99424.34;4316201;33;34289;-83
2023/05/27 03:30:46;;;;;;;14.05;9.88;;;;;;;19.24;58.38;99438.28;4311348;33;33976;-87
2023/05/27 03:33:15;;;;;;;14.30;10.88;;;;;;;19.42;58.13;99437.94;4316017;33;34219;-87
2023/05/27 03:35:42;;;;;;;12.13;9.73;;;;;;;19.25;58.68;99433.91;4314980;33;33474;-86
2023/05/27 03:38:11;;;;;;;13.57;9.50;;;;;;;19.36;58.04;99443.31;4315951;33;33953;-88
2023/05/27 03:40:38;;;;;;;15.80;9.80;;;;;;;19.47;57.96;99444.87;4315630;33;34917;-87
2023/05/27 03:43:06;;;;;;;15.32;10.35;;;;;;;19.47;58.05;99447.50;4315998;33;34130;-87
2023/05/27 03:45:34;;;;;;;13.27;10.35;;;;;;;19.25;58.84;99444.41;4315559;33;33726;-85
2023/05/27 03:48:02;;;;;;;17.10;9.68;;;;;;;19.47;58.48;99442.25;4316357;33;33739;-87
2023/05/27 03:50:29;;;;;;;13.48;9.77;;;;;;;19.49;58.72;99443.09;4316064;33;34057;-88
2023/05/27 03:52:57;;;;;;;13.88;10.07;;;;;;;19.62;58.18;99436.72;4314831;33;34406;-87
2023/05/27 03:55:26;;;;;;;14.63;9.95;;;;;;;19.56;59.03;99444.72;4314729;33;33593;-87
2023/05/27 03:57:53;;;;;;;13.38;9.35;;;;;;;20.11;57.25;99446.22;4315825;33;33517;-86
2023/05/27 04:00:21;;;;;;;14.23;9.85;;;;;;;19.48;56.80;99431.72;4315862;33;33955;-87
2023/05/27 04:02:49;;;;;;;14.02;9.93;;;;;;;19.64;58.61;99437.56;4315444;33;34389;-85
2023/05/27 04:05:18;;;;;;;13.90;9.48;;;;;;;20.03;57.25;99440.28;4315086;33;34348;-86
2023/05/27 04:07:45;;;;;;;14.23;9.40;;;;;;;20.20;56.89;99442.56;4315705;33;34579;-87
2023/05/27 04:10:13;;;;;;;12.75;8.77;;;;;;;20.55;56.46;99440.00;4315868;33;33897;-86
2023/05/27 04:12:41;;;;;;;12.45;8.10;;;;;;;20.70;56.02;99440.56;4314857;33;34463;-86
2023/05/27 04:15:09;;;;;;;15.18;10.00;;;;;;;20.86;55.54;99442.75;4315002;33;33614;-86
2023/05/27 04:17:36;;;;;;;12.43;8.65;;;;;;;20.88;55.37;99438.34;4315881;33;33655;-87
2023/05/27 04:20:14;;;;;;;10.77;8.70;;;;;;;21.29;54.62;99438.16;4315320;33;35526;-87
2023/05/27 04:22:43;;;;;;;14.05;8.75;;;;;;;21.55;53.82;99440.12;4315316;33;34173;-85
2023/05/27 04:25:11;;;;;;;13.00;9.38;;;;;;;21.40;51.86;99435.25;4313941;33;33363;-88
2023/05/27 04:27:40;;;;;;;11.12;7.78;;;;;;;21.59;51.77;99442.66;4302357;33;34003;-87
2023/05/27 04:30:08;;;;;;;12.40;7.93;;;;;;;21.89;51.25;99434.75;4315383;33;34065;-87
2023/05/27 04:32:37;;;;;;;11.27;8.50;;;;;;;21.99;52.49;99445.94;4301822;33;33940;-87
2023/05/27 04:35:09;;;;;;;14.07;7.75;;;;;;;21.95;50.96;99442.50;4312378;33;33577;-86
2023/05/27 04:37:37;;;;;;;12.07;7.47;;;;;;;22.40;49.18;99447.34;4315338;33;33797;-87
2023/05/27 04:40:06;;;;;;;13.98;8.45;;;;;;;22.89;51.29;99456.34;4302172;33;34924;-87
2023/05/27 04:42:38;;;;;;;13.73;8.02;;;;;;;23.04;50.63;99458.53;4315306;33;34144;-88
2023/05/27 04:45:08;;;;;;;12.18;8.05;;;;;;;22.60;48.24;99449.34;4314238;33;33851;-87
2023/05/27 04:47:37;;;;;;;11.27;7.37;;;;;;;22.99;47.82;99452.50;4314712;33;34107;-87
2023/05/27 04:50:10;;;;;;;12.77;7.80;;;;;;;23.31;49.07;99454.06;4315385;33;34097;-87
2023/05/27 04:52:38;;;;;;;13.57;7.28;;;;;;;23.69;48.55;99446.59;4313774;33;33892;-87
2023/05/27 04:55:06;;;;;;;11.85;7.15;;;;;;;23.21;47.17;99452.66;4312824;33;33330;-83
2023/05/27 04:57:40;;;;;;;10.88;7.37;;;;;;;23.81;47.62;99452.34;4315410;33;34460;-89
2023/05/27 05:02:39;;;;;;;13.65;7.40;;;;;;;24.06;46.15;99461.13;4311771;33;33870;-86
2023/05/27 05:05:09;;;;;;;11.07;7.03;;;;;;;24.57;46.54;99460.03;4300929;33;34513;-84
2023/05/27 05:07:39;;;;;;;12.65;7.43;;;;;;;24.60;46.31;99462.59;4300524;33;33676;-88
2023/05/27 05:10:08;;;;;;;14.00;7.53;;;;;;;24.53;45.45;99463.75;4315184;33;33723;-87
2023/05/27 05:12:36;;;;;;;10.32;7.05;;;;;;;24.57;43.37;99464.50;4316347;33;33799;-86
2023/05/27 05:15:06;;;;;;;10.90;7.28;;;;;;;24.84;43.32;99462.50;4317318;33;34274;-85
2023/05/27 05:17:33;;;;;;;12.60;6.68;;;;;;;24.34;43.44;99470.66;4316196;33;33805;-88
2023/05/27 05:20:01;;;;;;;13.62;6.60;;;;;;;24.08;42.51;99467.22;4316537;33;33282;-87
2023/05/27 05:22:29;;;;;;;12.13;6.35;;;;;;;24.17;42.12;99466.87;4320715;33;34248;-87
2023/05/27 05:24:56;;;;;;;11.02;7.00;;;;;;;24.14;42.93;99464.34;4317075;33;33609;-87
2023/05/27 05:27:25;;;;;;;12.95;7.10;;;;;;;24.86;45.60;99468.63;4303311;33;33969;-87
2023/05/27 05:29:53;;;;;;;11.43;6.82;;;;;;;24.97;46.84;99479.66;4279638;33;32671;-86
2023/05/27 05:32:20;;;;;;;12.55;6.70;;;;;;;25.26;45.07;99467.84;4313315;33;34711;-85
2023/05/27 05:34:48;;;;;;;10.23;6.75;;;;;;;25.59;41.30;99462.88;4315627;33;33843;-84
2023/05/27 05:37:16;;;;;;;11.90;7.28;;;;;;;25.11;40.58;99476.44;4316907;33;35247;-86
2023/05/27 05:39:44;;;;;;;10.48;7.00;;;;;;;24.79;41.80;99475.09;4316695;33;34198;-86
2023/05/27 05:42:11;;;;;;;9.45;6.12;;;;;;;24.11;42.23;99477.69;4291044;33;36455;-85
2023/05/27 05:44:39;;;;;;;9.77;5.93;;;;;;;24.83;41.83;99476.69;4316997;33;33347;-84
2023/05/27 05:47:07;;;;;;;10.63;6.75;;;;;;;24.74;41.82;99478.81;4314828;33;33956;-84
2023/05/27 05:49:35;;;;;;;11.05;6.93;;;;;;;24.87;42.26;99483.59;4316145;33;34908;-84
2023/05/27 05:52:03;;;;;;;15.60;6.97;;;;;;;24.86;42.37;99481.88;4316356;33;34858;-85
2023/05/27 05:54:31;;;;;;;10.30;6.65;;;;;;;24.84;44.05;99486.38;4315722;33;34072;-85
2023/05/27 05:57:00;;;;;;;13.27;6.68;;;;;;;24.24;45.49;99489.56;4316611;33;33715;-85
2023/05/27 05:59:28;;;;;;;10.30;6.45;;;;;;;24.32;44.69;99491.03;4316954;33;33693;-83
2023/05/27 06:01:56;;;;;;;15.65;6.97;;;;;;;23.73;43.00;99487.91;4302040;33;33899;-84
2023/05/27 06:04:24;;;;;;;11.52;6.95;;;;;;;23.76;45.85;99498.41;4315308;33;33509;-83
2023/05/27 06:06:52;;;;;;;14.23;7.12;;;;;;;23.63;45.96;99507.66;4309886;33;32487;-85
2023/05/27 06:09:24;;;;;;;11.18;6.75;;;;;;;23.21;46.81;99508.19;4316876;33;34087;-85
2023/05/27 06:11:53;;;;;;;10.60;5.68;;;;;;;22.83;46.87;99502.34;4316929;33;34918;-86
2023/05/27 06:14:22;;;;;;;10.10;6.37;;;;;;;23.17;46.14;99503.06;4302032;33;33677;-86
2023/05/27 06:16:50;;;;;;;10.35;6.60;;;;;;;23.16;46.81;99511.94;4303704;33;33642;-85
2023/05/27 06:19:17;;;;;;;13.43;7.40;;;;;;;22.74;49.27;99523.81;4316263;33;34916;-86
2023/05/27 06:21:45;;;;;;;13.95;6.82;;;;;;;22.61;47.51;99511.88;4315862;33;34055;-86
2023/05/27 06:24:15;;;;;;;9.98;6.35;;;;;;;22.68;48.75;99523.97;4303411;33;33636;-86
2023/05/27 06:26:43;;;;;;;13.62;7.00;;;;;;;22.98;47.57;99531.91;4315865;33;33975;-85
2023/05/27 06:29:11;;;;;;;10.23;6.50;;;;;;;22.33;47.45;99531.19;4312725;33;33941;-87
2023/05/27 06:31:38;;;;;;;14.80;7.03;;;;;;;22.74;47.59;99530.88;4290004;33;34812;-87
2023/05/27 06:34:06;;;;;;;10.90;5.45;;;;;;;22.61;47.01;99530.34;4313891;33;33288;-87
2023/05/27 06:36:35;;;;;;;11.15;6.00;;;;;;;22.71;46.44;99537.09;4316352;33;34753;-85
2023/05/27 06:39:03;;;;;;;12.90;6.10;;;;;;;23.01;45.68;99530.03;4316641;33;33733;-87
2023/05/27 06:41:32;;;;;;;14.80;6.70;;;;;;;22.68;46.87;99541.63;4315693;33;33783;-86
2023/05/27 06:44:02;;;;;;;12.80;5.55;;;;;;;22.62;45.42;99531.25;4311930;33;34746;-88
2023/05/27 06:46:31;;;;;;;12.77;6.07;;;;;;;22.27;46.34;99535.78;4301740;33;32614;-85
2023/05/27 06:48:59;;;;;;;9.02;5.47;;;;;;;22.85;45.44;99535.81;4313854;33;33679;-84
2023/05/27 06:51:28;;;;;;;10.70;6.07;;;;;;;22.96;44.33;99537.25;4288493;33;34087;-85
2023/05/27 06:53:56;;;;;;;9.02;5.55;;;;;;;22.98;46.17;99539.81;4315576;33;34335;-85
2023/05/27 06:56:25;;;;;;;9.85;5.22;;;;;;;22.79;43.84;99537.72;4316673;33;34655;-85
2023/05/27 06:58:55;;;;;;;11.35;5.62;;;;;;;22.91;43.79;99538.25;4316495;33;33774;-84
2023/05/27 07:01:22;;;;;;;10.95;5.47;;;;;;;22.82;43.65;99550.00;4315375;33;34512;-85
2023/05/27 07:03:51;;;;;;;11.95;5.45;;;;;;;22.64;43.84;99540.84;4305802;33;34418;-87
2023/05/27 07:06:19;;;;;;;9.20;5.45;;;;;;;22.98;44.00;99553.03;4327974;33;34696;-84
2023/05/27 07:08:47;;;;;;;10.80;5.10;;;;;;;22.79;42.37;99548.31;4316510;33;34487;-84
2023/05/27 07:11:16;;;;;;;11.15;4.97;;;;;;;23.12;42.04;99553.47;4316301;33;34332;-87
2023/05/27 07:13:44;;;;;;;10.35;5.68;;;;;;;23.00;42.75;99551.22;4300364;33;33843;-86
2023/05/27 07:16:12;;;;;;;11.68;5.40;;;;;;;23.14;41.53;99541.06;4315985;33;34728;-86
2023/05/27 07:18:40;;;;;;;10.02;5.32;;;;;;;23.20;40.24;99545.28;4290784;33;33461;-87
2023/05/27 07:21:07;;;;;;;8.35;4.55;;;;;;;22.99;42.14;99557.41;4314776;33;34129;-87
2023/05/27 07:23:35;;;;;;;11.38;5.40;;;;;;;23.06;41.33;99553.66;4301959;33;32854;-88
2023/05/27 07:26:03;;;;;;;11.45;5.25;;;;;;;23.23;41.04;99554.00;4303026;33;34607;-88
2023/05/27 07:28:32;;;;;;;9.48;4.87;;;;;;;23.23;41.12;99561.94;4290439;33;33126;-87
2023/05/27 07:31:00;;;;;;;11.85;5.97;;;;;;;23.33;41.32;99553.69;4285973;33;33025;-85
2023/05/27 07:33:29;;;;;;;12.35;5.65;;;;;;;23.41;41.84;99554.28;4315877;33;34298;-88
2023/05/27 07:35:56;;;;;;;10.23;4.90;;;;;;;23.60;42.31;99559.81;4315620;33;33676;-86
2023/05/27 07:38:24;;;;;;;11.30;5.25;;;;;;;23.62;41.82;99552.72;4300772;33;33069;-86
2023/05/27 07:40:52;;;;;;;11.18;4.97;;;;;;;23.63;42.27;99555.28;4314757;33;34329;-86
2023/05/27 07:43:22;;;;;;;12.55;5.20;;;;;;;23.13;43.21;99549.06;4314779;33;32882;-85
2023/05/27 07:45:52;;;;;;;17.62;5.40;;;;;;;23.37;42.53;99550.87;4301662;33;33150;-86
2023/05/27 07:48:20;;;;;;;17.85;5.53;;;;;;;23.11;42.53;99557.03;4310207;33;33991;-87
2023/05/27 07:50:47;;;;;;;10.70;4.93;;;;;;;23.05;41.90;99544.00;4290711;33;34242;-87
2023/05/27 07:53:16;;;;;;;13.40;6.00;;;;;;;23.44;43.56;99546.25;4314900;33;33453;-87
2023/05/27 07:55:44;;;;;;;9.07;5.00;;;;;;;23.88;41.60;99538.59;4314796;33;33844;-87
2023/05/27 07:58:12;;;;;;;11.82;5.47;;;;;;;24.28;39.78;99533.56;4316028;33;33526;-87
2023/05/27 08:00:40;;;;;;;12.65;5.10;;;;;;;24.23;38.59;99539.94;4314956;33;34833;-87
2023/05/27 08:03:08;;;;;;;11.27;5.60;;;;;;;24.53;40.27;99532.66;4290518;33;33605;-87
2023/05/27 08:05:36;;;;;;;9.20;4.32;;;;;;;24.04;39.67;99539.75;4315679;33;34028;-87
2023/05/27 08:08:04;;;;;;;16.87;5.05;;;;;;;23.75;40.58;99533.75;4298479;33;33471;-87
2023/05/27 08:10:33;;;;;;;14.75;5.25;;;;;;;23.99;39.73;99537.28;4315381;33;33577;-87
2023/05/27 08:13:01;;;;;;;12.07;4.75;;;;;;;23.68;40.01;99536.66;4302264;33;33670;-87
2023/05/27 08:15:30;;;;;;;13.00;4.87;;;;;;;23.64;40.00;99535.87;4313384;33;33936;-87
2023/05/27 08:17:58;;;;;;;9.98;4.68;;;;;;;23.36;40.23;99535.06;4314864;33;34293;-88
2023/05/27 08:20:27;;;;;;;9.65;4.62;;;;;;;23.91;40.06;99523.47;4315665;33;33732;-89
2023/05/27 08:22:55;;;;;;;14.98;5.75;;;;;;;24.06;38.61;99529.13;4315539;33;33384;-88
2023/05/27 08:25:23;;;;;;;8.98;5.25;;;;;;;24.33;38.99;99527.22;4315353;33;33505;-87
2023/05/27 08:27:53;;;;;;;12.57;5.70;;;;;;;24.27;40.01;99529.16;4314745;33;33975;-86
2023/05/27 08:30:21;;;;;;;12.95;5.30;;;;;;;24.32;40.00;99526.38;4314218;33;33958;-87
2023/05/27 08:32:49;;;;;;;11.85;5.45;;;;;;;24.24;38.40;99525.78;4312637;33;33617;-88
2023/05/27 08:35:20;;;;;;;10.20;4.97;;;;;;;24.47;40.89;99532.88;4315172;33;34391;-86
2023/05/27 08:37:47;;;;;;;12.48;5.18;;;;;;;25.03;37.84;99527.13;4313786;33;34598;-86
2023/05/27 08:40:17;;;;;;;14.48;4.75;;;;;;;24.53;39.42;99527.34;4312974;33;33469;-86
2023/05/27 08:42:49;;;;;;;10.63;4.65;;;;;;;24.20;37.41;99525.03;4315411;33;33204;-86
2023/05/27 08:45:17;;;;;;;11.70;5.10;;;;;;;24.75;40.29;99525.59;4303014;33;34739;-88
2023/05/27 08:47:45;;;;;;;9.23;4.45;;;;;;;25.45;39.16;99526.31;4317497;33;34771;-87
2023/05/27 08:50:13;;;;;;;9.65;4.70;;;;;;;24.93;37.36;99520.50;4316717;33;33811;-86
2023/05/27 08:52:48;;;;;;;10.18;4.50;;;;;;;25.48;38.49;99524.38;4317334;33;34430;-85
2023/05/27 08:55:17;;;;;;;10.23;4.45;;;;;;;25.31;39.09;99532.22;4302528;33;33616;-86
2023/05/27 08:57:50;;;;;;;10.07;5.05;;;;;;;25.38;35.42;99527.50;4303628;33;34013;-85
2023/05/27 09:00:18;;;;;;;10.82;5.22;;;;;;;25.26;36.52;99531.53;4316130;33;34751;-86
2023/05/27 09:02:47;;;;;;;9.60;4.60;;;;;;;25.32;36.98;99527.78;4316773;33;33210;-85
2023/05/27 09:05:16;;;;;;;12.10;5.05;;;;;;;25.09;38.13;99534.84;4316221;33;35294;-85
2023/05/27 09:07:44;;;;;;;8.48;4.40;;;;;;;24.73;37.32;99527.44;4316811;33;34614;-86
2023/05/27 09:10:11;;;;;;;10.88;5.15;;;;;;;25.18;37.26;99533.63;4317376;33;34341;-85
2023/05/27 09:12:44;;;;;;;12.48;5.12;;;;;;;25.11;37.16;99522.41;4316468;33;34633;-90
2023/05/27 09:15:13;;;;;;;14.73;5.25;;;;;;;25.75;36.62;99525.94;4313151;33;34132;-85
2023/05/27 09:17:44;;;;;;;11.10;5.12;;;;;;;25.66;38.62;99525.41;4290031;33;33117;-91
2023/05/27 09:20:12;;;;;;;13.25;4.60;;;;;;;25.62;36.39;99510.53;4304836;33;34772;-83
2023/05/27 09:22:41;;;;;;;16.17;5.12;;;;;;;25.68;37.54;99512.03;4316535;33;34395;-84
2023/05/27 09:25:09;;;;;;;9.10;4.60;;;;;;;25.52;35.90;99511.84;4322589;33;35132;-85
2023/05/27 09:27:42;;;;;;;13.50;5.80;;;;;;;25.48;35.91;99511.13;4315807;33;34963;-87
2023/05/27 09:30:10;;;;;;;9.75;4.35;;;;;;;25.37;37.65;99517.81;4316734;33;34258;-88
2023/05/27 09:32:37;;;;;;;10.48;4.57;;;;;;;25.79;37.87;99507.16;4318265;33;33283;-88
2023/05/27 09:35:07;;;;;;;10.93;5.03;;;;;;;25.84;37.59;99517.59;4315456;33;33198;-88
2023/05/27 09:37:35;;;;;;;10.00;4.37;;;;;;;25.37;33.94;99520.47;4316901;33;33965;-87
2023/05/27 09:40:14;;;;;;;10.60;4.60;;;;;;;25.38;34.50;99511.56;4313958;33;34731;-89
2023/05/27 09:42:46;;;;;;;9.68;4.07;;;;;;;25.77;33.50;99502.84;4330095;33;34723;-88
2023/05/27 09:45:20;;;;;;;12.13;5.18;;;;;;;25.89;34.09;99503.16;4313546;33;33658;-87
2023/05/27 09:47:52;;;;;;;11.48;4.93;;;;;;;25.65;33.81;99504.25;4303031;33;34184;-87
2023/05/27 09:50:21;;;;;;;10.98;4.87;;;;;;;26.37;34.48;99504.53;4303100;33;34362;-86
2023/05/27 09:52:49;;;;;;;10.65;4.97;;;;;;;26.51;33.22;99501.22;4311080;33;33296;-85
2023/05/27 09:55:20;;;;;;;10.98;4.85;;;;;;;26.53;32.88;99499.38;4314735;33;32669;-87
2023/05/27 09:57:48;;;;;;;8.77;4.40;;;;;;;25.93;34.40;99495.94;4301027;33;34106;-85
2023/05/27 10:00:18;;;;;;;9.35;5.00;;;;;;;25.49;35.00;99509.31;4300057;33;33859;-86
2023/05/27 10:02:47;;;;;;;12.18;5.00;;;;;;;25.28;34.18;99507.59;4315968;33;34091;-88
2023/05/27 10:05:15;;;;;;;9.60;5.07;;;;;;;25.40;35.81;99494.66;4315020;33;34661;-87
2023/05/27 10:07:44;;;;;;;12.55;4.95;;;;;;;25.59;34.38;99488.56;4303109;33;34141;-88
2023/05/27 10:10:32;;;;;;;10.02;4.40;;;;;;;26.03;34.12;99483.97;4318220;33;34034;-88
2023/05/27 10:13:01;;;;;;;10.27;5.40;;;;;;;25.95;34.46;99492.28;4315981;33;33655;-89
2023/05/27 10:15:31;;;;;;;8.55;4.62;;;;;;;26.04;34.72;99492.78;4302221;33;33418;-87
2023/05/27 10:18:02;;;;;;;10.45;5.30;;;;;;;26.11;33.32;99487.12;4311366;33;34964;-87
2023/05/27 10:20:31;;;;;;;11.57;5.30;;;;;;;26.11;32.86;99486.28;4313991;33;33880;-87
2023/05/27 10:23:12;;;;;;;12.13;5.70;;;;;;;26.50;31.96;99482.72;4302489;33;33438;-87
2023/05/27 10:25:50;;;;;;;9.43;4.80;;;;;;;27.15;32.82;99481.31;4314115;33;34806;-87
2023/05/27 10:28:28;;;;;;;9.05;4.72;;;;;;;26.95;33.09;99492.91;4315578;33;34912;-87
2023/05/27 10:31:10;;;;;;;10.88;5.22;;;;;;;27.23;33.87;99488.91;4317068;33;34088;-90
2023/05/27 10:33:39;;;;;;;10.57;4.87;;;;;;;26.58;34.18;99485.88;4301135;33;32994;-87
2023/05/27 10:36:17;;;;;;;8.40;4.72;;;;;;;26.74;34.68;99493.97;4302928;33;33955;-89
2023/05/27 10:38:55;;;;;;;8.60;4.72;;;;;;;26.95;36.19;99494.72;4314732;33;33674;-89
2023/05/27 10:41:23;;;;;;;11.60;5.03;;;;;;;26.28;36.58;99485.47;4315514;33;33917;-86
2023/05/27 10:43:58;;;;;;;8.70;4.78;;;;;;;26.48;35.94;99487.22;4307200;33;32850;-87
2023/05/27 10:46:26;;;;;;;12.27;4.70;;;;;;;26.15;34.68;99483.41;4297927;33;33525;-87
2023/05/27 10:48:54;;;;;;;9.75;4.80;;;;;;;26.29;33.39;99484.53;4316399;33;33928;-87
2023/05/27 10:51:31;;;;;;;9.43;5.03;;;;;;;26.52;34.56;99478.16;4316026;33;34218;-87
2023/05/27 10:54:03;;;;;;;12.32;6.00;;;;;;;26.65;32.88;99477.50;4314845;33;33827;-89
2023/05/27 10:56:51;;;;;;;8.27;4.72;;;;;;;26.46;35.16;99479.34;4315764;33;34759;-90
2023/05/27 10:59:23;;;;;;;7.97;5.22;;;;;;;26.74;33.86;99480.66;4316447;33;33802;-88
2023/05/27 11:01:53;;;;;;;8.90;4.87;;;;;;;26.55;32.66;99478.03;4310677;33;34934;-88
2023/05/27 11:04:22;;;;;;;13.00;5.53;;;;;;;26.57;32.27;99477.03;4303422;33;33275;-87
2023/05/27 11:06:59;;;;;;;8.88;5.35;;;;;;;26.75;32.39;99479.75;4315145;33;34215;-89
2023/05/27 11:09:31;;;;;;;8.07;4.87;;;;;;;27.11;31.21;99474.41;4302718;33;33527;-89
2023/05/27 11:12:05;;;;;;;9.38;5.53;;;;;;;26.54;33.03;99466.53;4302842;33;34914;-89
2023/05/27 11:14:33;;;;;;;8.18;5.20;;;;;;;26.95;33.69;99468.97;4316243;33;33696;-89
2023/05/27 11:17:01;;;;;;;10.73;5.05;;;;;;;27.15;31.26;99470.66;4316141;33;34015;-88
2023/05/27 11:19:29;;;;;;;9.02;4.62;;;;;;;27.60;32.53;99462.09;4321816;33;34743;-87
2023/05/27 11:21:57;;;;;;;9.88;4.65;;;;;;;27.22;33.22;99464.09;4326457;33;34945;-89
2023/05/27 11:24:24;;;;;;;8.90;4.65;;;;;;;26.86;34.67;99462.31;4326600;33;33692;-87
2023/05/27 11:26:52;;;;;;;11.98;5.07;;;;;;;26.85;34.75;99470.34;4331273;33;33888;-88
2023/05/27 11:29:20;;;;;;;12.55;4.75;;;;;;;26.77;33.26;99464.56;4330864;33;34135;-88
2023/05/27 11:34:50;;;;;;;11.60;5.05;;;;;;;26.56;33.98;99467.34;4764524;27;20397;-88
2023/05/27 11:37:17;;;;;;;9.32;4.80;;;;;;;26.90;34.83;99465.69;4321161;33;33890;-87
2023/05/27 11:39:52;;;;;;;11.48;4.87;;;;;;;26.65;33.08;99464.22;4318656;33;34167;-90